Latest Coastal Weather Observations for Truscott

IDW60701

Issued at 3:53 pm WST Saturday 25 November 2017 (issued every 10 minutes, with the page automatically refreshed every 10 minutes)

About coastal observations | Map of coastal stations | Coastal observations for WA | Marine services | Other Formats
Station Details ID: 001020 Name: TRUSCOTT Lat: -14.09 Lon: 126.39 Height: 51.0 m
Data from the previous 72 hours. | See also: Recent months at Truscott
Date/Time
WST
Temp
°C
Wind Pressure Rain since
9am
mm
Weather Cloud Vis
km
Sea
Height
m
Swell
Dir  Spd
kts
Gust
kts
hPa Trend Height
m
Period
s
Dir
25/03:30pm 27.4 W 6 9 1004.6 - 9.4 - Partly cloudy 10 - - - -
25/03:00pm 26.7 WNW 4 7 1005.1 - 9.4 Recent precip. Mostly cloudy 10 - - - -
25/02:30pm 26.2 E 9 20 1006.8 - 9.2 - Partly cloudy 10 - - - -
25/02:00pm 25.0 E 14 23 1007.7 - 2.4 - Partly cloudy 5 - - - -
25/01:48pm 28.1 NE 15 25 1007.2 - 0.0 - Partly cloudy 10 - - - -
25/01:37pm 29.8 N 10 24 1006.6 - 0.0 - Partly cloudy 10 - - - -
25/01:30pm 34.3 N 9 13 1005.6 - 0.0 - - 10 - - - -
25/01:00pm 33.7 NW 7 10 1005.8 - 0.0 - - 10 - - - -
25/12:30pm 33.9 WNW 8 13 1006.1 - 0.0 - - 10 - - - -
25/12:00pm 33.6 W 7 13 1006.7 - 0.0 - - 10 - - - -
25/11:30am 33.1 NW 7 11 1007.2 - 0.0 - - 10 - - - -
25/11:00am 33.4 NW 7 9 1007.8 - 0.0 - - 10 - - - -
25/10:30am 32.9 NW 7 11 1008.1 - 0.0 - Partly cloudy 10 - - - -
25/10:00am 32.5 NW 6 10 1008.5 - 0.0 - - 10 - - - -
25/09:30am 32.2 NW 5 10 1008.6 - 0.0 - - 10 - - - -
25/09:00am 31.7 WNW 6 9 1008.8 - 0.0 - - 10 - - - -
25/08:30am 31.5 W 6 9 1009.0 - 0.0 - - 10 - - - -
25/08:00am 31.0 W 4 8 1009.0 - 0.0 - Partly cloudy 10 - - - -
25/07:30am 29.9 WNW 6 9 1009.1 - 0.0 - Partly cloudy 10 - - - -
25/07:00am 29.9 WSW 5 8 1009.1 - 0.0 - Partly cloudy 10 - - - -
25/06:30am 29.3 W 4 5 1009.0 - 0.0 - - 10 - - - -
25/06:00am 28.6 CALM 0 0 1008.7 - 0.0 - - 10 - - - -
25/05:30am 27.1 CALM 0 0 1008.4 - 0.0 - - 10 - - - -
25/05:00am 26.2 CALM 0 0 1008.0 - 0.0 - - 10 - - - -
25/04:30am 26.3 CALM 0 0 1007.8 - 0.0 - - 10 - - - -
25/04:00am 26.3 CALM 0 0 1007.5 - 0.0 - - 10 - - - -
25/03:30am 26.5 CALM 0 0 1007.3 - 0.0 - - 10 - - - -
25/03:00am 26.6 CALM 0 0 1007.3 - 0.0 - - 10 - - - -
25/02:30am 26.7 CALM 0 0 1006.8 - 0.0 - - 10 - - - -
25/02:00am 26.8 S 1 3 1006.8 - 0.0 - Partly cloudy 10 - - - -
25/01:30am 27.1 CALM 0 0 1006.6 - 0.0 - - 10 - - - -
25/01:00am 27.6 W 3 3 1006.6 - 0.0 - - 10 - - - -
25/12:30am 27.6 CALM 0 0 1006.7 - 0.0 - - 10 - - - -
25/12:00am 26.9 CALM 0 0 1006.8 - 0.0 - - 10 - - - -
 
Date/Time
WST
Temp
°C
Wind Pressure Rain since
9am
mm
Weather Cloud Vis
km
Sea
Height
m
Swell
Dir  Spd
kts
Gust
kts
hPa Trend Height
m
Period
s
Dir
24/11:30pm 26.9 CALM 0 0 1007.1 - 0.0 - - 10 - - - -
24/11:00pm 27.3 CALM 0 0 1007.1 - 0.0 - - 10 - - - -
24/10:30pm 27.3 CALM 0 0 1007.2 - 0.0 - - 10 - - - -
24/10:00pm 27.6 CALM 0 0 1007.4 - 0.0 - - 10 - - - -
24/09:30pm 28.2 NNW 1 3 1007.6 - 0.0 - - 10 - - - -
24/09:00pm 28.4 CALM 0 3 1007.5 - 0.0 - - 10 - - - -
24/08:30pm 28.6 NNW 4 5 1007.3 - 0.0 - - 10 - - - -
24/08:00pm 28.7 NNW 3 5 1007.1 - 0.0 - - 10 - - - -
24/07:30pm 29.0 NNW 3 4 1007.0 - 0.0 - - 10 - - - -
24/07:00pm 29.0 N 4 6 1006.8 - 0.0 - - 10 - - - -
24/06:30pm 29.2 N 4 6 1006.2 - 0.0 - - 10 - - - -
24/06:00pm 29.4 N 5 8 1005.8 - 0.0 - - 10 - - - -
24/05:30pm 29.8 NNW 6 10 1005.3 - 0.0 - - 10 - - - -
24/05:00pm 30.5 NNW 7 11 1005.1 - 0.0 - - 10 - - - -
24/04:30pm 30.9 NNW 8 11 1004.5 - 0.0 - - 10 - - - -
24/04:00pm 30.9 NNW 9 14 1004.4 - 0.0 - - 10 - - - -
24/03:30pm 31.4 NNW 8 13 1004.5 - 0.0 - - 10 - - - -
24/03:00pm 32.2 NNW 9 11 1004.6 - 0.0 - - 10 - - - -
24/02:30pm 32.3 N 8 13 1004.8 - 0.0 - - 10 - - - -
24/02:00pm 32.5 N 9 12 1005.0 - 0.0 - - 10 - - - -
24/01:30pm 32.7 N 8 11 1005.3 - 0.0 - - 10 - - - -
24/01:00pm 33.4 N 9 12 1005.4 - 0.0 - - 10 - - - -
24/12:30pm 34.1 NNW 6 8 1005.6 - 0.0 - - 10 - - - -
24/12:00pm 33.3 NNW 7 11 1006.0 - 0.0 - - 10 - - - -
24/11:30am 33.7 WNW 4 8 1006.4 - 0.0 - - 10 - - - -
24/11:00am 32.8 W 4 6 1006.9 - 0.0 - - 10 - - - -
24/10:30am 32.7 W 5 7 1007.4 - 0.0 - - 10 - - - -
24/10:00am 32.6 ENE 3 5 1007.8 - 0.0 - - 10 - - - -
24/09:30am 31.7 S 5 8 1008.1 - 0.0 - - 10 - - - -
24/09:00am 30.5 ESE 2 4 1008.5 - 24.0 - Mostly clear 10 - - - -
24/08:30am 29.0 S 5 7 1008.6 - 24.0 - - 10 - - - -
24/08:00am 28.4 SW 5 6 1008.0 - 24.0 - - 10 - - - -
24/07:30am 27.6 SE 4 5 1007.9 - 24.0 - - 10 - - - -
24/07:00am 26.9 SSE 3 5 1007.6 - 24.0 - - 10 - - - -
24/06:30am 26.5 SSE 4 5 1007.4 - 24.0 - - 10 - - - -
24/06:00am 26.0 SSE 4 6 1007.2 - 24.0 - Cloudy 10 - - - -
24/05:30am 25.5 SSE 4 6 1006.8 - 24.0 - - 10 - - - -
24/05:00am 25.5 SSE 4 5 1006.2 - 24.0 - - 10 - - - -
24/04:30am 25.7 SE 5 7 1006.1 - 24.0 - - 10 - - - -
24/04:00am 26.0 SE 6 11 1006.1 - 24.0 - - 10 - - - -
24/03:30am 25.9 SE 6 9 1006.0 - 24.0 - - 10 - - - -
24/03:00am 25.9 E 5 7 1005.7 - 24.0 - Cloudy 10 - - - -
24/02:30am 27.0 WNW 7 12 1004.6 - 24.0 - Partly cloudy 10 - - - -
24/02:00am 26.8 WNW 7 11 1004.7 - 24.0 - - 10 - - - -
24/01:30am 26.4 WNW 5 8 1005.2 - 24.0 - Cloudy 10 - - - -
24/01:00am 25.9 W 5 8 1005.6 - 23.8 - - 10 - - - -
24/12:30am 25.7 W 6 8 1005.6 - 23.8 - - 10 - - - -
24/12:00am 24.8 W 6 9 1006.1 - 23.8 - Cloudy 10 - - - -
 
Date/Time
WST
Temp
°C
Wind Pressure Rain since
9am
mm
Weather Cloud Vis
km
Sea
Height
m
Swell
Dir  Spd
kts
Gust
kts
hPa Trend Height
m
Period
s
Dir
23/11:30pm 25.0 W 4 6 1006.5 - 23.8 - - 10 - - - -
23/11:00pm 24.6 E 4 6 1007.3 - 23.8 - - 10 - - - -
23/10:30pm 24.5 E 5 8 1008.0 - 23.8 - Cloudy 10 - - - -
23/10:00pm 23.9 SSE 4 6 1008.7 - 23.6 - Partly cloudy 10 - - - -
23/09:50pm 23.7 ESE 5 6 1008.6 - 23.6 - Partly cloudy 10 - - - -
23/09:41pm 23.5 ENE 5 6 1008.7 - 23.4 - Partly cloudy 6 - - - -
23/09:31pm 23.7 NE 7 14 1008.7 - 22.4 - Partly cloudy 2 - - - -
23/09:30pm 23.7 NE 8 17 1008.7 - 22.0 - Partly cloudy 2 - - - -
23/09:19pm 24.4 E 9 16 1009.0 - 15.6 - Partly cloudy 5 - - - -
23/09:00pm 24.6 SE 5 8 1008.7 - 13.0 Rain Mostly cloudy 10 - - - -
23/08:30pm 24.5 S 9 15 1008.1 - 12.6 - Partly cloudy 10 - - - -
23/08:00pm 24.7 E 5 7 1006.3 - 12.4 - Partly cloudy 10 - - - -
23/07:30pm 24.0 S 5 10 1006.8 - 12.4 - Partly cloudy 10 - - - -
23/07:00pm 24.0 WSW 5 8 1005.2 - 12.2 - Partly cloudy 10 - - - -
23/06:43pm 23.9 SSE 6 9 1005.6 - 12.2 - Partly cloudy 10 - - - -
23/06:30pm 23.1 SE 9 16 1006.0 - 11.6 - Partly cloudy 5 - - - -
23/06:24pm 23.0 E 11 21 1006.2 - 10.4 - Partly cloudy 4 - - - -
23/06:14pm 23.6 ESE 12 20 1006.5 - 8.0 - Partly cloudy 2 - - - -
23/06:05pm 24.1 ESE 12 21 1005.9 - 2.8 - Partly cloudy 5 - - - -
23/06:00pm 25.2 ESE 12 20 1005.6 - 0.0 - Cloudy 10 - - - -
23/05:51pm 28.6 SSE 9 26 1005.1 - 0.0 - Partly cloudy 10 - - - -
23/05:50pm 28.8 S 9 26 1004.6 - 0.0 - Partly cloudy 10 - - - -
23/05:30pm 30.4 NNW 8 13 1003.0 - 0.0 - - 10 - - - -
23/05:00pm 31.0 NNW 8 14 1002.3 - 0.0 - - 10 - - - -
23/04:30pm 31.9 NNW 8 12 1001.6 - 0.0 - - 10 - - - -
23/04:00pm 33.4 NNW 9 13 1001.6 - 0.0 - - 10 - - - -
23/03:30pm 33.2 NNW 8 13 1001.7 - 0.0 - - 10 - - - -
23/03:00pm 33.7 NW 8 11 1001.8 - 0.0 - - 10 - - - -
23/02:30pm 35.0 WNW 7 10 1001.9 - 0.0 - - 10 - - - -
23/02:00pm 34.6 WNW 8 11 1002.4 - 0.0 - - 10 - - - -
23/01:30pm 34.0 WNW 9 14 1002.7 - 0.0 - - 10 - - - -
23/01:00pm 34.1 WNW 9 13 1003.2 - 0.0 - - 10 - - - -
23/12:30pm 33.6 W 8 13 1003.7 - 0.0 - - 10 - - - -
23/12:00pm 33.3 W 9 14 1004.3 - 0.0 - - 10 - - - -
23/11:30am 33.5 W 8 13 1004.7 - 0.0 - - 10 - - - -
23/11:00am 32.6 WNW 9 13 1005.1 - 0.0 - Partly cloudy 10 - - - -
23/10:30am 32.9 W 9 11 1005.8 - 0.0 - - 10 - - - -
23/10:00am 32.3 W 8 11 1006.0 - 0.0 - - 10 - - - -
23/09:30am 31.7 W 6 7 1006.0 - 0.0 - - 10 - - - -
23/09:00am 31.8 WSW 5 7 1006.4 - 11.8 - Mostly clear 10 - - - -
23/08:30am 31.0 W 6 9 1006.7 - 11.8 - Partly cloudy 10 - - - -
23/08:00am 30.8 W 3 6 1006.7 - 11.8 - Partly cloudy 10 - - - -
23/07:30am 29.9 WSW 5 7 1006.8 - 11.8 - Partly cloudy 10 - - - -
23/07:00am 29.5 WSW 3 4 1006.8 - 11.8 - - 10 - - - -
23/06:30am 28.9 S 3 4 1006.6 - 11.8 - - 10 - - - -
23/06:00am 27.6 SSE 2 4 1006.3 - 11.8 - - 10 - - - -
23/05:30am 26.7 SSE 2 4 1005.7 - 11.8 - - 10 - - - -
23/05:00am 25.9 S 1 7 1005.4 - 11.8 - Partly cloudy 10 - - - -
23/04:30am 26.1 CALM 0 0 1005.2 - 11.8 - - 10 - - - -
23/04:00am 26.2 SSE 1 3 1004.7 - 11.8 - - 10 - - - -
23/03:30am 26.5 SSE 3 5 1004.3 - 11.8 - - 10 - - - -
23/03:00am 27.5 WSW 3 4 1004.0 - 11.8 - Mostly clear 10 - - - -
23/02:30am 27.3 W 3 4 1003.6 - 11.8 - - 10 - - - -
23/02:00am 27.2 WSW 2 4 1003.7 - 11.8 - - 10 - - - -
23/01:30am 27.2 W 3 5 1003.6 - 11.8 - - 10 - - - -
23/01:00am 27.0 W 3 5 1003.8 - 11.8 - - 10 - - - -
23/12:30am 26.6 CALM 0 0 1004.0 - 11.8 - - 10 - - - -
23/12:00am 26.6 CALM 0 0 1004.4 - 11.8 - - 10 - - - -
 
Date/Time
WST
Temp
°C
Wind Pressure Rain since
9am
mm
Weather Cloud Vis
km
Sea
Height
m
Swell
Dir  Spd
kts
Gust
kts
hPa Trend Height
m
Period
s
Dir
22/11:30pm 26.6 CALM 0 0 1005.0 - 11.8 - - 10 - - - -
22/11:00pm 26.9 WNW 1 3 1005.3 - 11.8 - - 10 - - - -
22/10:30pm 27.2 WNW 3 4 1005.6 - 11.8 - - 10 - - - -
22/10:00pm 26.4 NW 2 4 1005.9 - 11.8 - - 10 - - - -
22/09:30pm 26.6 CALM 0 0 1006.0 - 11.8 - - 10 - - - -
22/09:00pm 26.7 CALM 0 0 1005.6 - 11.8 - Mostly cloudy 10 - - - -
22/08:30pm 27.6 WNW 3 4 1005.5 - 11.8 - - 10 - - - -
22/08:00pm 28.0 WSW 4 5 1005.7 - 11.8 - - 10 - - - -
22/07:30pm 28.0 W 5 6 1005.5 - 11.8 - - 10 - - - -
22/07:00pm 28.1 WSW 5 6 1005.2 - 11.8 - - 10 - - - -
22/06:30pm 28.1 W 4 5 1004.6 - 11.8 - - 10 - - - -
22/06:00pm 28.1 W 4 5 1004.5 - 11.8 - - 10 - - - -
22/05:30pm 28.3 WSW 5 6 1004.2 - 11.8 - - 10 - - - -
22/05:00pm 28.5 WSW 5 6 1003.8 - 11.8 - - 10 - - - -
22/04:30pm 28.5 WSW 6 8 1003.1 - 11.8 - - 10 - - - -
22/04:00pm 28.2 SW 6 8 1003.0 - 11.8 - - 10 - - - -

Other Formats:

Comma delimited format used in spreadsheet applications
http://www.bom.gov.au/fwo/IDW60701/IDW60701.95101.axf

JavaScript Object Notation format (JSON) in row-major order
http://www.bom.gov.au/fwo/IDW60701/IDW60701.95101.json